sensor_id;sensor_type;location;lat;lon;timestamp;P1;durP1;ratioP1;P2;durP2;ratioP2
38715;SDS011;24833;49.324;8.694;2023-08-12T00:01:24;3.20;;;2.08;;
38715;SDS011;24833;49.324;8.694;2023-08-12T00:03:51;4.57;;;2.10;;
38715;SDS011;24833;49.324;8.694;2023-08-12T00:06:19;4.10;;;2.08;;
38715;SDS011;24833;49.324;8.694;2023-08-12T00:08:46;2.00;;;1.80;;
38715;SDS011;24833;49.324;8.694;2023-08-12T00:11:13;3.45;;;1.90;;
38715;SDS011;24833;49.324;8.694;2023-08-12T00:13:41;5.55;;;2.30;;
38715;SDS011;24833;49.324;8.694;2023-08-12T00:16:08;2.05;;;1.85;;
38715;SDS011;24833;49.324;8.694;2023-08-12T00:18:35;2.33;;;1.90;;
38715;SDS011;24833;49.324;8.694;2023-08-12T00:21:06;5.40;;;2.40;;
38715;SDS011;24833;49.324;8.694;2023-08-12T00:23:40;2.15;;;1.70;;
38715;SDS011;24833;49.324;8.694;2023-08-12T00:26:07;2.45;;;1.90;;
38715;SDS011;24833;49.324;8.694;2023-08-12T00:28:35;3.95;;;2.08;;
38715;SDS011;24833;49.324;8.694;2023-08-12T00:31:02;1.98;;;1.75;;
38715;SDS011;24833;49.324;8.694;2023-08-12T00:33:30;3.45;;;2.13;;
38715;SDS011;24833;49.324;8.694;2023-08-12T00:35:57;3.30;;;2.08;;
38715;SDS011;24833;49.324;8.694;2023-08-12T00:38:24;5.00;;;2.08;;
38715;SDS011;24833;49.324;8.694;2023-08-12T00:40:52;4.72;;;1.80;;
38715;SDS011;24833;49.324;8.694;2023-08-12T00:43:19;1.95;;;1.73;;
38715;SDS011;24833;49.324;8.694;2023-08-12T00:45:46;4.75;;;2.20;;
38715;SDS011;24833;49.324;8.694;2023-08-12T00:48:13;2.70;;;1.90;;
38715;SDS011;24833;49.324;8.694;2023-08-12T00:50:43;2.50;;;2.17;;
38715;SDS011;24833;49.324;8.694;2023-08-12T00:53:12;4.22;;;2.17;;
38715;SDS011;24833;49.324;8.694;2023-08-12T00:55:42;4.22;;;2.00;;
38715;SDS011;24833;49.324;8.694;2023-08-12T00:58:09;4.38;;;2.35;;
38715;SDS011;24833;49.324;8.694;2023-08-12T01:00:40;2.35;;;2.10;;
38715;SDS011;24833;49.324;8.694;2023-08-12T01:03:07;3.47;;;2.17;;
38715;SDS011;24833;49.324;8.694;2023-08-12T01:05:34;2.50;;;2.30;;
38715;SDS011;24833;49.324;8.694;2023-08-12T01:08:06;2.30;;;1.95;;
38715;SDS011;24833;49.324;8.694;2023-08-12T01:10:35;2.63;;;2.00;;
38715;SDS011;24833;49.324;8.694;2023-08-12T01:16:20;4.25;;;2.03;;
38715;SDS011;24833;49.324;8.694;2023-08-12T01:18:49;1.95;;;1.85;;
38715;SDS011;24833;49.324;8.694;2023-08-12T01:21:17;4.40;;;2.38;;
38715;SDS011;24833;49.324;8.694;2023-08-12T01:23:50;5.55;;;2.15;;
38715;SDS011;24833;49.324;8.694;2023-08-12T01:26:17;4.10;;;2.20;;
38715;SDS011;24833;49.324;8.694;2023-08-12T01:28:44;4.40;;;2.40;;
38715;SDS011;24833;49.324;8.694;2023-08-12T01:31:14;2.55;;;2.30;;
38715;SDS011;24833;49.324;8.694;2023-08-12T01:34:09;2.28;;;2.08;;
38715;SDS011;24833;49.324;8.694;2023-08-12T01:36:49;3.05;;;2.30;;
38715;SDS011;24833;49.324;8.694;2023-08-12T01:39:24;3.05;;;2.17;;
38715;SDS011;24833;49.324;8.694;2023-08-12T01:41:53;2.33;;;1.92;;
38715;SDS011;24833;49.324;8.694;2023-08-12T01:44:21;5.03;;;2.20;;
38715;SDS011;24833;49.324;8.694;2023-08-12T01:46:49;5.85;;;2.28;;
38715;SDS011;24833;49.324;8.694;2023-08-12T01:49:17;3.45;;;2.03;;
38715;SDS011;24833;49.324;8.694;2023-08-12T01:51:44;3.30;;;2.20;;
38715;SDS011;24833;49.324;8.694;2023-08-12T01:54:11;2.30;;;1.80;;
38715;SDS011;24833;49.324;8.694;2023-08-12T01:56:38;4.38;;;2.33;;
38715;SDS011;24833;49.324;8.694;2023-08-12T01:59:05;4.25;;;2.42;;
38715;SDS011;24833;49.324;8.694;2023-08-12T02:01:32;4.68;;;2.35;;
38715;SDS011;24833;49.324;8.694;2023-08-12T02:03:59;4.32;;;2.72;;
38715;SDS011;24833;49.324;8.694;2023-08-12T02:06:26;2.97;;;2.13;;
38715;SDS011;24833;49.324;8.694;2023-08-12T02:08:53;4.07;;;2.55;;
38715;SDS011;24833;49.324;8.694;2023-08-12T02:11:20;2.63;;;2.30;;
38715;SDS011;24833;49.324;8.694;2023-08-12T02:13:47;7.45;;;2.38;;
38715;SDS011;24833;49.324;8.694;2023-08-12T02:16:14;4.38;;;2.10;;
38715;SDS011;24833;49.324;8.694;2023-08-12T02:18:42;3.65;;;2.35;;
38715;SDS011;24833;49.324;8.694;2023-08-12T02:21:09;3.33;;;1.98;;
38715;SDS011;24833;49.324;8.694;2023-08-12T02:23:36;2.55;;;2.00;;
38715;SDS011;24833;49.324;8.694;2023-08-12T02:26:04;2.50;;;1.80;;
38715;SDS011;24833;49.324;8.694;2023-08-12T02:28:31;2.45;;;1.88;;
38715;SDS011;24833;49.324;8.694;2023-08-12T02:30:58;2.72;;;1.92;;
38715;SDS011;24833;49.324;8.694;2023-08-12T02:33:27;2.05;;;1.85;;
38715;SDS011;24833;49.324;8.694;2023-08-12T02:35:54;3.08;;;2.03;;
38715;SDS011;24833;49.324;8.694;2023-08-12T02:38:24;3.35;;;1.80;;
38715;SDS011;24833;49.324;8.694;2023-08-12T02:40:51;1.95;;;1.77;;
38715;SDS011;24833;49.324;8.694;2023-08-12T02:43:18;2.80;;;1.60;;
38715;SDS011;24833;49.324;8.694;2023-08-12T02:45:45;2.08;;;1.80;;
38715;SDS011;24833;49.324;8.694;2023-08-12T02:48:12;2.65;;;2.08;;
38715;SDS011;24833;49.324;8.694;2023-08-12T02:50:39;1.92;;;1.65;;
38715;SDS011;24833;49.324;8.694;2023-08-12T02:53:07;3.08;;;2.10;;
38715;SDS011;24833;49.324;8.694;2023-08-12T02:55:34;2.45;;;2.03;;
38715;SDS011;24833;49.324;8.694;2023-08-12T02:58:01;1.60;;;1.45;;
38715;SDS011;24833;49.324;8.694;2023-08-12T03:00:29;1.92;;;1.73;;
38715;SDS011;24833;49.324;8.694;2023-08-12T03:02:57;2.15;;;1.92;;
38715;SDS011;24833;49.324;8.694;2023-08-12T03:05:24;2.17;;;1.98;;
38715;SDS011;24833;49.324;8.694;2023-08-12T03:07:51;1.90;;;1.77;;
38715;SDS011;24833;49.324;8.694;2023-08-12T03:10:18;2.50;;;1.80;;
38715;SDS011;24833;49.324;8.694;2023-08-12T03:12:45;4.28;;;2.05;;
38715;SDS011;24833;49.324;8.694;2023-08-12T03:15:13;8.95;;;2.25;;
38715;SDS011;24833;49.324;8.694;2023-08-12T03:17:40;2.78;;;2.10;;
38715;SDS011;24833;49.324;8.694;2023-08-12T03:20:08;2.67;;;2.10;;
38715;SDS011;24833;49.324;8.694;2023-08-12T03:22:37;2.75;;;1.73;;
38715;SDS011;24833;49.324;8.694;2023-08-12T03:25:04;1.95;;;1.60;;
38715;SDS011;24833;49.324;8.694;2023-08-12T03:27:32;2.15;;;1.85;;
38715;SDS011;24833;49.324;8.694;2023-08-12T03:29:59;2.03;;;1.83;;
38715;SDS011;24833;49.324;8.694;2023-08-12T03:32:26;2.22;;;1.98;;
38715;SDS011;24833;49.324;8.694;2023-08-12T03:34:54;1.88;;;1.75;;
38715;SDS011;24833;49.324;8.694;2023-08-12T03:37:22;2.33;;;1.95;;
38715;SDS011;24833;49.324;8.694;2023-08-12T03:39:51;2.30;;;1.85;;
38715;SDS011;24833;49.324;8.694;2023-08-12T03:42:19;3.88;;;1.92;;
38715;SDS011;24833;49.324;8.694;2023-08-12T03:44:47;3.30;;;2.10;;
38715;SDS011;24833;49.324;8.694;2023-08-12T03:47:15;2.45;;;1.90;;
38715;SDS011;24833;49.324;8.694;2023-08-12T03:49:43;5.28;;;2.17;;
38715;SDS011;24833;49.324;8.694;2023-08-12T03:52:10;2.67;;;2.08;;
38715;SDS011;24833;49.324;8.694;2023-08-12T03:54:37;3.03;;;1.90;;
38715;SDS011;24833;49.324;8.694;2023-08-12T03:57:04;3.67;;;1.88;;
38715;SDS011;24833;49.324;8.694;2023-08-12T03:59:32;2.38;;;2.08;;
38715;SDS011;24833;49.324;8.694;2023-08-12T04:01:59;2.78;;;2.40;;
38715;SDS011;24833;49.324;8.694;2023-08-12T04:04:27;2.10;;;1.90;;
38715;SDS011;24833;49.324;8.694;2023-08-12T04:06:54;2.30;;;2.10;;
38715;SDS011;24833;49.324;8.694;2023-08-12T04:09:21;2.85;;;1.92;;
38715;SDS011;24833;49.324;8.694;2023-08-12T04:11:48;2.38;;;1.90;;
38715;SDS011;24833;49.324;8.694;2023-08-12T04:14:15;2.38;;;2.05;;
38715;SDS011;24833;49.324;8.694;2023-08-12T04:16:42;4.45;;;1.98;;
38715;SDS011;24833;49.324;8.694;2023-08-12T04:19:10;2.15;;;1.95;;
38715;SDS011;24833;49.324;8.694;2023-08-12T04:21:37;4.60;;;2.25;;
38715;SDS011;24833;49.324;8.694;2023-08-12T04:24:04;3.53;;;2.80;;
38715;SDS011;24833;49.324;8.694;2023-08-12T04:26:31;5.47;;;2.45;;
38715;SDS011;24833;49.324;8.694;2023-08-12T04:28:59;2.70;;;2.38;;
38715;SDS011;24833;49.324;8.694;2023-08-12T04:31:26;2.50;;;2.25;;
38715;SDS011;24833;49.324;8.694;2023-08-12T04:33:53;2.88;;;2.47;;
38715;SDS011;24833;49.324;8.694;2023-08-12T04:36:22;2.78;;;2.38;;
38715;SDS011;24833;49.324;8.694;2023-08-12T04:38:50;3.53;;;2.30;;
38715;SDS011;24833;49.324;8.694;2023-08-12T04:41:17;4.18;;;2.55;;
38715;SDS011;24833;49.324;8.694;2023-08-12T04:43:45;2.30;;;2.10;;
38715;SDS011;24833;49.324;8.694;2023-08-12T04:46:12;3.17;;;2.10;;
38715;SDS011;24833;49.324;8.694;2023-08-12T04:48:39;2.60;;;2.30;;
38715;SDS011;24833;49.324;8.694;2023-08-12T04:51:06;4.85;;;2.78;;
38715;SDS011;24833;49.324;8.694;2023-08-12T04:53:34;2.63;;;2.33;;
38715;SDS011;24833;49.324;8.694;2023-08-12T04:56:01;5.43;;;2.53;;
38715;SDS011;24833;49.324;8.694;2023-08-12T04:58:29;3.97;;;2.75;;
38715;SDS011;24833;49.324;8.694;2023-08-12T05:00:56;2.78;;;2.47;;
38715;SDS011;24833;49.324;8.694;2023-08-12T05:03:23;3.00;;;2.22;;
38715;SDS011;24833;49.324;8.694;2023-08-12T05:05:52;3.55;;;2.67;;
38715;SDS011;24833;49.324;8.694;2023-08-12T05:08:23;2.65;;;2.45;;
38715;SDS011;24833;49.324;8.694;2023-08-12T05:10:50;2.42;;;2.10;;
38715;SDS011;24833;49.324;8.694;2023-08-12T05:13:18;2.90;;;2.28;;
38715;SDS011;24833;49.324;8.694;2023-08-12T05:15:45;2.47;;;1.98;;
38715;SDS011;24833;49.324;8.694;2023-08-12T05:20:42;3.40;;;2.40;;
38715;SDS011;24833;49.324;8.694;2023-08-12T05:23:12;2.88;;;2.63;;
38715;SDS011;24833;49.324;8.694;2023-08-12T05:25:41;3.28;;;2.70;;
38715;SDS011;24833;49.324;8.694;2023-08-12T05:28:08;2.60;;;1.95;;
38715;SDS011;24833;49.324;8.694;2023-08-12T05:30:35;3.08;;;2.72;;
38715;SDS011;24833;49.324;8.694;2023-08-12T05:33:02;4.30;;;2.17;;
38715;SDS011;24833;49.324;8.694;2023-08-12T05:35:33;2.88;;;2.45;;
38715;SDS011;24833;49.324;8.694;2023-08-12T05:38:01;5.25;;;2.47;;
38715;SDS011;24833;49.324;8.694;2023-08-12T05:40:28;2.72;;;2.33;;
38715;SDS011;24833;49.324;8.694;2023-08-12T05:42:55;2.47;;;2.03;;
38715;SDS011;24833;49.324;8.694;2023-08-12T05:45:22;2.75;;;2.45;;
38715;SDS011;24833;49.324;8.694;2023-08-12T05:47:49;1.92;;;1.83;;
38715;SDS011;24833;49.324;8.694;2023-08-12T05:50:16;2.65;;;2.30;;
38715;SDS011;24833;49.324;8.694;2023-08-12T05:52:44;2.40;;;2.20;;
38715;SDS011;24833;49.324;8.694;2023-08-12T05:55:11;4.07;;;2.10;;
38715;SDS011;24833;49.324;8.694;2023-08-12T05:57:38;2.80;;;2.20;;
38715;SDS011;24833;49.324;8.694;2023-08-12T06:00:05;3.45;;;2.70;;
38715;SDS011;24833;49.324;8.694;2023-08-12T06:02:39;3.33;;;2.50;;
38715;SDS011;24833;49.324;8.694;2023-08-12T06:05:06;6.10;;;2.40;;
38715;SDS011;24833;49.324;8.694;2023-08-12T06:07:34;3.72;;;2.80;;
38715;SDS011;24833;49.324;8.694;2023-08-12T06:10:01;2.72;;;2.42;;
38715;SDS011;24833;49.324;8.694;2023-08-12T06:12:28;2.55;;;2.22;;
38715;SDS011;24833;49.324;8.694;2023-08-12T06:14:56;3.05;;;2.50;;
38715;SDS011;24833;49.324;8.694;2023-08-12T06:17:23;3.78;;;2.60;;
38715;SDS011;24833;49.324;8.694;2023-08-12T06:19:50;6.75;;;2.60;;
38715;SDS011;24833;49.324;8.694;2023-08-12T06:22:17;2.78;;;1.90;;
38715;SDS011;24833;49.324;8.694;2023-08-12T06:24:44;3.65;;;2.80;;
38715;SDS011;24833;49.324;8.694;2023-08-12T06:27:11;5.18;;;2.78;;
38715;SDS011;24833;49.324;8.694;2023-08-12T06:29:38;4.53;;;2.78;;
38715;SDS011;24833;49.324;8.694;2023-08-12T06:32:05;3.92;;;2.33;;
38715;SDS011;24833;49.324;8.694;2023-08-12T06:34:32;4.03;;;2.60;;
38715;SDS011;24833;49.324;8.694;2023-08-12T06:36:59;3.67;;;2.63;;
38715;SDS011;24833;49.324;8.694;2023-08-12T06:39:26;2.90;;;2.40;;
38715;SDS011;24833;49.324;8.694;2023-08-12T06:41:53;5.60;;;2.70;;
38715;SDS011;24833;49.324;8.694;2023-08-12T06:44:22;4.25;;;2.65;;
38715;SDS011;24833;49.324;8.694;2023-08-12T06:46:49;3.33;;;2.42;;
38715;SDS011;24833;49.324;8.694;2023-08-12T06:49:16;3.28;;;2.95;;
38715;SDS011;24833;49.324;8.694;2023-08-12T06:51:43;2.90;;;2.60;;
38715;SDS011;24833;49.324;8.694;2023-08-12T06:54:10;3.08;;;2.70;;
38715;SDS011;24833;49.324;8.694;2023-08-12T06:56:37;3.08;;;2.67;;
38715;SDS011;24833;49.324;8.694;2023-08-12T06:59:04;4.70;;;2.45;;
38715;SDS011;24833;49.324;8.694;2023-08-12T07:01:31;3.95;;;2.75;;
38715;SDS011;24833;49.324;8.694;2023-08-12T07:03:58;4.03;;;2.42;;
38715;SDS011;24833;49.324;8.694;2023-08-12T07:06:25;3.88;;;2.63;;
38715;SDS011;24833;49.324;8.694;2023-08-12T07:08:53;4.75;;;3.13;;
38715;SDS011;24833;49.324;8.694;2023-08-12T07:11:22;2.40;;;2.17;;
38715;SDS011;24833;49.324;8.694;2023-08-12T07:13:49;3.97;;;2.97;;
38715;SDS011;24833;49.324;8.694;2023-08-12T07:16:16;3.65;;;3.20;;
38715;SDS011;24833;49.324;8.694;2023-08-12T07:18:44;4.32;;;2.63;;
38715;SDS011;24833;49.324;8.694;2023-08-12T07:21:11;5.70;;;3.45;;
38715;SDS011;24833;49.324;8.694;2023-08-12T07:23:38;2.92;;;2.70;;
38715;SDS011;24833;49.324;8.694;2023-08-12T07:26:09;3.53;;;3.05;;
38715;SDS011;24833;49.324;8.694;2023-08-12T07:28:36;3.20;;;2.90;;
38715;SDS011;24833;49.324;8.694;2023-08-12T07:31:03;3.40;;;2.85;;
38715;SDS011;24833;49.324;8.694;2023-08-12T07:33:30;3.90;;;3.00;;
38715;SDS011;24833;49.324;8.694;2023-08-12T07:35:57;3.42;;;2.88;;
38715;SDS011;24833;49.324;8.694;2023-08-12T07:38:24;3.85;;;2.85;;
38715;SDS011;24833;49.324;8.694;2023-08-12T07:40:51;2.90;;;2.63;;
38715;SDS011;24833;49.324;8.694;2023-08-12T07:43:20;5.03;;;2.97;;
38715;SDS011;24833;49.324;8.694;2023-08-12T07:45:50;7.65;;;3.33;;
38715;SDS011;24833;49.324;8.694;2023-08-12T07:48:35;4.22;;;3.75;;
38715;SDS011;24833;49.324;8.694;2023-08-12T07:51:02;4.57;;;3.17;;
38715;SDS011;24833;49.324;8.694;2023-08-12T07:53:29;3.67;;;3.38;;
38715;SDS011;24833;49.324;8.694;2023-08-12T07:55:56;5.35;;;3.40;;
38715;SDS011;24833;49.324;8.694;2023-08-12T07:58:23;3.50;;;2.90;;
38715;SDS011;24833;49.324;8.694;2023-08-12T08:00:53;2.97;;;2.78;;
38715;SDS011;24833;49.324;8.694;2023-08-12T08:05:48;4.25;;;3.20;;
38715;SDS011;24833;49.324;8.694;2023-08-12T08:08:15;4.50;;;3.53;;
38715;SDS011;24833;49.324;8.694;2023-08-12T08:10:42;3.28;;;2.97;;
38715;SDS011;24833;49.324;8.694;2023-08-12T08:13:09;5.65;;;3.38;;
38715;SDS011;24833;49.324;8.694;2023-08-12T08:15:36;4.60;;;3.38;;
38715;SDS011;24833;49.324;8.694;2023-08-12T08:18:04;5.43;;;3.53;;
38715;SDS011;24833;49.324;8.694;2023-08-12T08:20:33;4.10;;;3.55;;
38715;SDS011;24833;49.324;8.694;2023-08-12T08:23:01;3.33;;;3.08;;
38715;SDS011;24833;49.324;8.694;2023-08-12T08:25:31;6.10;;;3.53;;
38715;SDS011;24833;49.324;8.694;2023-08-12T08:27:58;4.95;;;3.75;;
38715;SDS011;24833;49.324;8.694;2023-08-12T08:30:25;4.50;;;3.60;;
38715;SDS011;24833;49.324;8.694;2023-08-12T08:32:52;4.53;;;3.80;;
38715;SDS011;24833;49.324;8.694;2023-08-12T08:35:20;3.40;;;3.03;;
38715;SDS011;24833;49.324;8.694;2023-08-12T08:37:47;4.68;;;3.70;;
38715;SDS011;24833;49.324;8.694;2023-08-12T08:40:14;5.03;;;3.80;;
38715;SDS011;24833;49.324;8.694;2023-08-12T08:42:44;5.32;;;3.80;;
38715;SDS011;24833;49.324;8.694;2023-08-12T08:45:15;4.10;;;3.67;;
38715;SDS011;24833;49.324;8.694;2023-08-12T08:47:44;5.82;;;4.20;;
38715;SDS011;24833;49.324;8.694;2023-08-12T08:50:13;3.80;;;3.37;;
38715;SDS011;24833;49.324;8.694;2023-08-12T08:52:41;4.28;;;3.17;;
38715;SDS011;24833;49.324;8.694;2023-08-12T08:55:09;7.25;;;3.38;;
38715;SDS011;24833;49.324;8.694;2023-08-12T08:57:39;4.07;;;3.42;;
38715;SDS011;24833;49.324;8.694;2023-08-12T09:00:14;6.65;;;3.35;;
38715;SDS011;24833;49.324;8.694;2023-08-12T09:02:45;3.70;;;3.40;;
38715;SDS011;24833;49.324;8.694;2023-08-12T09:05:15;5.70;;;3.67;;
38715;SDS011;24833;49.324;8.694;2023-08-12T09:07:43;3.88;;;3.35;;
38715;SDS011;24833;49.324;8.694;2023-08-12T09:10:11;3.60;;;2.78;;
38715;SDS011;24833;49.324;8.694;2023-08-12T09:12:44;7.38;;;3.33;;
38715;SDS011;24833;49.324;8.694;2023-08-12T09:15:13;8.07;;;3.65;;
38715;SDS011;24833;49.324;8.694;2023-08-12T09:17:42;3.85;;;3.05;;
38715;SDS011;24833;49.324;8.694;2023-08-12T09:20:09;6.45;;;3.33;;
38715;SDS011;24833;49.324;8.694;2023-08-12T09:22:40;3.42;;;3.13;;
38715;SDS011;24833;49.324;8.694;2023-08-12T09:25:08;5.38;;;3.25;;
38715;SDS011;24833;49.324;8.694;2023-08-12T09:27:36;4.95;;;3.28;;
38715;SDS011;24833;49.324;8.694;2023-08-12T09:30:04;3.28;;;2.97;;
38715;SDS011;24833;49.324;8.694;2023-08-12T09:32:33;3.67;;;2.63;;
38715;SDS011;24833;49.324;8.694;2023-08-12T09:35:01;3.17;;;2.60;;
38715;SDS011;24833;49.324;8.694;2023-08-12T09:37:32;4.05;;;3.08;;
38715;SDS011;24833;49.324;8.694;2023-08-12T09:39:59;2.72;;;2.53;;
38715;SDS011;24833;49.324;8.694;2023-08-12T09:42:31;3.97;;;3.10;;
38715;SDS011;24833;49.324;8.694;2023-08-12T09:44:59;4.57;;;3.45;;
38715;SDS011;24833;49.324;8.694;2023-08-12T09:47:28;4.93;;;3.60;;
38715;SDS011;24833;49.324;8.694;2023-08-12T09:49:57;4.40;;;3.13;;
38715;SDS011;24833;49.324;8.694;2023-08-12T09:52:26;4.40;;;3.08;;
38715;SDS011;24833;49.324;8.694;2023-08-12T09:54:54;4.70;;;3.42;;
38715;SDS011;24833;49.324;8.694;2023-08-12T09:57:27;5.95;;;3.13;;
38715;SDS011;24833;49.324;8.694;2023-08-12T10:00:00;4.28;;;3.58;;
38715;SDS011;24833;49.324;8.694;2023-08-12T10:04:57;5.75;;;2.88;;
38715;SDS011;24833;49.324;8.694;2023-08-12T10:07:25;4.07;;;3.00;;
38715;SDS011;24833;49.324;8.694;2023-08-12T10:09:53;4.43;;;3.13;;
38715;SDS011;24833;49.324;8.694;2023-08-12T10:12:21;3.80;;;3.17;;
38715;SDS011;24833;49.324;8.694;2023-08-12T10:14:49;4.10;;;3.00;;
38715;SDS011;24833;49.324;8.694;2023-08-12T10:17:17;4.68;;;3.40;;
38715;SDS011;24833;49.324;8.694;2023-08-12T10:20:06;3.70;;;3.28;;
38715;SDS011;24833;49.324;8.694;2023-08-12T10:22:35;4.85;;;3.65;;
38715;SDS011;24833;49.324;8.694;2023-08-12T10:25:06;3.92;;;3.30;;
38715;SDS011;24833;49.324;8.694;2023-08-12T10:30:06;3.97;;;2.88;;
38715;SDS011;24833;49.324;8.694;2023-08-12T10:32:36;6.80;;;3.55;;
38715;SDS011;24833;49.324;8.694;2023-08-12T10:35:05;4.70;;;3.28;;
38715;SDS011;24833;49.324;8.694;2023-08-12T10:37:35;6.15;;;2.90;;
38715;SDS011;24833;49.324;8.694;2023-08-12T10:40:03;3.45;;;3.00;;
38715;SDS011;24833;49.324;8.694;2023-08-12T10:42:44;3.67;;;3.20;;
38715;SDS011;24833;49.324;8.694;2023-08-12T10:45:16;4.45;;;2.83;;
38715;SDS011;24833;49.324;8.694;2023-08-12T10:47:48;4.53;;;3.47;;
38715;SDS011;24833;49.324;8.694;2023-08-12T10:50:36;5.43;;;3.53;;
38715;SDS011;24833;49.324;8.694;2023-08-12T10:55:57;3.58;;;3.13;;
38715;SDS011;24833;49.324;8.694;2023-08-12T10:58:41;3.78;;;3.13;;
38715;SDS011;24833;49.324;8.694;2023-08-12T11:01:18;3.60;;;3.05;;
38715;SDS011;24833;49.324;8.694;2023-08-12T11:03:47;4.88;;;3.05;;
38715;SDS011;24833;49.324;8.694;2023-08-12T11:06:15;5.53;;;3.60;;
38715;SDS011;24833;49.324;8.694;2023-08-12T11:08:46;2.88;;;2.67;;
38715;SDS011;24833;49.324;8.694;2023-08-12T11:11:24;5.07;;;3.63;;
38715;SDS011;24833;49.324;8.694;2023-08-12T11:13:53;3.30;;;3.00;;
38715;SDS011;24833;49.324;8.694;2023-08-12T11:16:36;3.83;;;3.20;;
38715;SDS011;24833;49.324;8.694;2023-08-12T11:19:04;4.97;;;3.65;;
38715;SDS011;24833;49.324;8.694;2023-08-12T11:21:32;4.32;;;3.25;;
38715;SDS011;24833;49.324;8.694;2023-08-12T11:24:03;3.63;;;3.10;;
38715;SDS011;24833;49.324;8.694;2023-08-12T11:26:30;5.32;;;3.05;;
38715;SDS011;24833;49.324;8.694;2023-08-12T11:28:58;3.47;;;3.17;;
38715;SDS011;24833;49.324;8.694;2023-08-12T11:31:25;4.65;;;3.55;;
38715;SDS011;24833;49.324;8.694;2023-08-12T11:33:53;3.70;;;3.13;;
38715;SDS011;24833;49.324;8.694;2023-08-12T11:36:20;6.32;;;4.05;;
38715;SDS011;24833;49.324;8.694;2023-08-12T11:38:47;3.72;;;3.33;;
38715;SDS011;24833;49.324;8.694;2023-08-12T11:41:17;4.00;;;3.58;;
38715;SDS011;24833;49.324;8.694;2023-08-12T11:43:44;3.70;;;3.30;;
38715;SDS011;24833;49.324;8.694;2023-08-12T11:46:11;4.10;;;3.40;;
38715;SDS011;24833;49.324;8.694;2023-08-12T11:48:43;3.30;;;3.00;;
38715;SDS011;24833;49.324;8.694;2023-08-12T11:51:10;4.22;;;3.72;;
38715;SDS011;24833;49.324;8.694;2023-08-12T11:53:37;4.45;;;3.92;;
38715;SDS011;24833;49.324;8.694;2023-08-12T11:56:05;4.90;;;3.60;;
38715;SDS011;24833;49.324;8.694;2023-08-12T11:58:38;4.57;;;3.33;;
38715;SDS011;24833;49.324;8.694;2023-08-12T12:01:19;4.85;;;3.40;;
38715;SDS011;24833;49.324;8.694;2023-08-12T12:03:53;4.50;;;3.80;;
38715;SDS011;24833;49.324;8.694;2023-08-12T12:06:31;3.28;;;2.97;;
38715;SDS011;24833;49.324;8.694;2023-08-12T12:09:06;6.05;;;3.92;;
38715;SDS011;24833;49.324;8.694;2023-08-12T12:11:38;3.92;;;3.63;;
38715;SDS011;24833;49.324;8.694;2023-08-12T12:14:07;3.97;;;2.88;;
38715;SDS011;24833;49.324;8.694;2023-08-12T12:16:43;2.33;;;2.10;;
38715;SDS011;24833;49.324;8.694;2023-08-12T12:19:19;2.28;;;1.85;;
38715;SDS011;24833;49.324;8.694;2023-08-12T12:21:52;1.40;;;1.30;;
38715;SDS011;24833;49.324;8.694;2023-08-12T12:24:20;1.98;;;1.70;;
38715;SDS011;24833;49.324;8.694;2023-08-12T12:26:47;1.30;;;1.20;;
38715;SDS011;24833;49.324;8.694;2023-08-12T12:29:15;2.65;;;1.80;;
38715;SDS011;24833;49.324;8.694;2023-08-12T12:31:42;1.77;;;1.33;;
38715;SDS011;24833;49.324;8.694;2023-08-12T12:34:10;3.17;;;1.35;;
38715;SDS011;24833;49.324;8.694;2023-08-12T12:36:37;1.65;;;1.35;;
38715;SDS011;24833;49.324;8.694;2023-08-12T12:39:05;1.50;;;1.20;;
38715;SDS011;24833;49.324;8.694;2023-08-12T12:41:33;1.55;;;1.25;;
38715;SDS011;24833;49.324;8.694;2023-08-12T12:44:00;1.80;;;1.58;;
38715;SDS011;24833;49.324;8.694;2023-08-12T12:46:28;2.72;;;1.33;;
38715;SDS011;24833;49.324;8.694;2023-08-12T12:48:56;1.75;;;1.48;;
38715;SDS011;24833;49.324;8.694;2023-08-12T12:51:23;1.30;;;1.20;;
38715;SDS011;24833;49.324;8.694;2023-08-12T12:53:50;2.03;;;1.20;;
38715;SDS011;24833;49.324;8.694;2023-08-12T12:56:17;1.48;;;1.33;;
38715;SDS011;24833;49.324;8.694;2023-08-12T12:58:44;2.28;;;1.17;;
38715;SDS011;24833;49.324;8.694;2023-08-12T13:01:11;4.00;;;1.50;;
38715;SDS011;24833;49.324;8.694;2023-08-12T13:03:38;1.10;;;1.08;;
38715;SDS011;24833;49.324;8.694;2023-08-12T13:06:05;2.00;;;1.30;;
38715;SDS011;24833;49.324;8.694;2023-08-12T13:08:33;4.90;;;1.25;;
38715;SDS011;24833;49.324;8.694;2023-08-12T13:11:00;2.70;;;1.27;;
38715;SDS011;24833;49.324;8.694;2023-08-12T13:13:28;3.67;;;1.30;;
38715;SDS011;24833;49.324;8.694;2023-08-12T13:15:55;1.60;;;1.30;;
38715;SDS011;24833;49.324;8.694;2023-08-12T13:18:22;2.40;;;1.45;;
38715;SDS011;24833;49.324;8.694;2023-08-12T13:20:49;1.60;;;1.50;;
38715;SDS011;24833;49.324;8.694;2023-08-12T13:23:16;2.60;;;1.25;;
38715;SDS011;24833;49.324;8.694;2023-08-12T13:25:43;2.63;;;1.40;;
38715;SDS011;24833;49.324;8.694;2023-08-12T13:28:10;2.65;;;1.58;;
38715;SDS011;24833;49.324;8.694;2023-08-12T13:30:37;2.38;;;1.92;;
38715;SDS011;24833;49.324;8.694;2023-08-12T13:33:04;2.30;;;1.75;;
38715;SDS011;24833;49.324;8.694;2023-08-12T13:35:32;1.60;;;1.50;;
38715;SDS011;24833;49.324;8.694;2023-08-12T13:37:59;1.58;;;1.40;;
38715;SDS011;24833;49.324;8.694;2023-08-12T13:40:26;2.22;;;1.27;;
38715;SDS011;24833;49.324;8.694;2023-08-12T13:42:53;3.03;;;1.63;;
38715;SDS011;24833;49.324;8.694;2023-08-12T13:45:20;1.90;;;1.55;;
38715;SDS011;24833;49.324;8.694;2023-08-12T13:47:47;2.70;;;1.50;;
38715;SDS011;24833;49.324;8.694;2023-08-12T13:50:15;1.60;;;1.50;;
38715;SDS011;24833;49.324;8.694;2023-08-12T13:52:42;1.55;;;1.45;;
38715;SDS011;24833;49.324;8.694;2023-08-12T13:55:09;1.92;;;1.30;;
38715;SDS011;24833;49.324;8.694;2023-08-12T13:57:36;2.03;;;1.60;;
38715;SDS011;24833;49.324;8.694;2023-08-12T14:00:03;3.65;;;1.67;;
38715;SDS011;24833;49.324;8.694;2023-08-12T14:02:41;2.53;;;1.30;;
38715;SDS011;24833;49.324;8.694;2023-08-12T14:05:08;2.00;;;1.38;;
38715;SDS011;24833;49.324;8.694;2023-08-12T14:07:37;2.35;;;1.80;;
38715;SDS011;24833;49.324;8.694;2023-08-12T14:10:04;2.22;;;1.67;;
38715;SDS011;24833;49.324;8.694;2023-08-12T14:12:32;2.05;;;1.73;;
38715;SDS011;24833;49.324;8.694;2023-08-12T14:15:00;2.17;;;1.80;;
38715;SDS011;24833;49.324;8.694;2023-08-12T14:17:29;3.00;;;1.90;;
38715;SDS011;24833;49.324;8.694;2023-08-12T14:19:56;4.80;;;2.13;;
38715;SDS011;24833;49.324;8.694;2023-08-12T14:22:26;3.55;;;2.35;;
38715;SDS011;24833;49.324;8.694;2023-08-12T14:24:53;3.95;;;1.95;;
38715;SDS011;24833;49.324;8.694;2023-08-12T14:27:25;5.07;;;2.30;;
38715;SDS011;24833;49.324;8.694;2023-08-12T14:29:52;2.95;;;2.15;;
38715;SDS011;24833;49.324;8.694;2023-08-12T14:32:19;2.88;;;2.17;;
38715;SDS011;24833;49.324;8.694;2023-08-12T14:34:46;3.40;;;2.20;;
38715;SDS011;24833;49.324;8.694;2023-08-12T14:37:13;4.32;;;2.63;;
38715;SDS011;24833;49.324;8.694;2023-08-12T14:39:41;3.22;;;2.63;;
38715;SDS011;24833;49.324;8.694;2023-08-12T14:42:08;3.17;;;2.50;;
38715;SDS011;24833;49.324;8.694;2023-08-12T14:44:36;6.10;;;2.72;;
38715;SDS011;24833;49.324;8.694;2023-08-12T14:47:04;3.58;;;2.08;;
38715;SDS011;24833;49.324;8.694;2023-08-12T14:49:31;2.60;;;1.90;;
38715;SDS011;24833;49.324;8.694;2023-08-12T14:51:58;1.88;;;1.73;;
38715;SDS011;24833;49.324;8.694;2023-08-12T14:54:25;2.00;;;1.80;;
38715;SDS011;24833;49.324;8.694;2023-08-12T14:56:52;2.08;;;1.88;;
38715;SDS011;24833;49.324;8.694;2023-08-12T14:59:19;3.50;;;2.10;;
38715;SDS011;24833;49.324;8.694;2023-08-12T15:01:46;6.00;;;2.17;;
38715;SDS011;24833;49.324;8.694;2023-08-12T15:04:13;3.38;;;2.38;;
38715;SDS011;24833;49.324;8.694;2023-08-12T15:06:40;4.50;;;2.67;;
38715;SDS011;24833;49.324;8.694;2023-08-12T15:09:07;3.10;;;2.80;;
38715;SDS011;24833;49.324;8.694;2023-08-12T15:11:35;3.10;;;2.42;;